LGSO

Details ICAO LGSO (JSY)
Name Syros
Region Greece
Timezone Europe/Athens (UTC+2.0)
Plans Departing 7
Arriving 12
Stats Elevation 236 ft / 72 m (AMSL)
Location 37.423049° 24.949936°
Runways 1
Magnetic Variation 4.554° E
Sunrise 2017-12-16 05:29:24 UTC / 2017-12-16 07:29:24 Local
Sunset 2017-12-16 15:04:58 UTC / 2017-12-16 17:04:58 Local
Advertisement - Login to hide

Runways

ID Width Length Bearing (true) Bearing (mag) Surface Threshold Offset Overrun Length
18 98 ft / 30 m 3,550 ft / 1,082 m 181.40° 176.85° Asphalt 0 ft / 0 m 0 ft / 0 m
36 98 ft / 30 m 3,550 ft / 1,082 m 1.40° 356.85° Asphalt 0 ft / 0 m 0 ft / 0 m

Map

Weather


0- 5 10 15 20 25 30 35+ Temperature / ° C

Clouds and Precipitation
Forecast for 2017-12-17 00:00 UTC. Updated 2 hours ago

Ground ~20,000 ft ~40,000 ft Winds

METAR

LGSO 162050Z AUTO 16015KT //// // ////// 16/11 Q1012 RE//

TAF

Not found

Frequencies

Tower 118.85 MHz AFIS
Warning: Do not use this data for real-world aviation or navigation. No guarantee of current accuracy is given.